Time;durP1;ratioP1;P1;durP2;ratioP2;P2;SDS_P1;SDS_P2;PMS_P1;PMS_P2;Temp;Humidity;BMP_temperature;BMP_pressure;BME280_temperature;BME280_humidity;BME280_pressure;Samples;Min_cycle;Max_cycle;Signal;HPM_P1;HPM_P2
2023/11/04 00:01:04;;;;;;;1.47;0.60;;;11.20;92.30;;;;;;6370913;22;20507;-86
2023/11/04 00:03:50;;;;;;;1.63;0.83;;;11.20;92.40;;;;;;6346728;22;20496;-86
2023/11/04 00:06:39;;;;;;;0.80;0.70;;;11.10;92.50;;;;;;6347992;22;20440;-83
2023/11/04 00:09:10;;;;;;;0.70;0.70;;;11.00;92.60;;;;;;6375757;22;20385;-87
2023/11/04 00:11:56;;;;;;;1.53;0.83;;;11.10;92.70;;;;;;6348802;22;20400;-86
2023/11/04 00:15:00;;;;;;;1.53;0.73;;;11.00;92.90;;;;;;6348425;22;20470;-87
2023/11/04 00:17:43;;;;;;;1.57;0.97;;;11.00;92.90;;;;;;6349440;22;20857;-85
2023/11/04 00:20:26;;;;;;;;;;;;;;;;;;;;;
2023/11/04 00:23:16;;;;;;;0.80;0.73;;;11.10;93.00;;;;;;6373650;22;20420;-83
2023/11/04 00:26:04;;;;;;;1.27;1.10;;;11.10;93.00;;;;;;6374791;22;20424;-84
2023/11/04 00:28:33;;;;;;;0.70;0.60;;;10.90;93.10;;;;;;6319665;22;20411;-87
2023/11/04 00:31:11;;;;;;;0.90;0.80;;;10.90;93.30;;;;;;6346434;22;20406;-84
2023/11/04 00:33:38;;;;;;;0.50;0.50;;;11.00;93.30;;;;;;6373144;22;20467;-85
2023/11/04 00:36:30;;;;;;;1.63;0.63;;;11.00;93.50;;;;;;6345526;22;20432;-87
2023/11/04 00:39:05;;;;;;;1.33;0.70;;;10.90;93.50;;;;;;6342079;22;20403;-86
2023/11/04 00:41:34;;;;;;;1.00;0.70;;;10.80;93.50;;;;;;6385864;22;20411;-84
2023/11/04 00:44:06;;;;;;;0.50;0.50;;;10.80;93.70;;;;;;6359150;22;20436;-86
2023/11/04 00:46:41;;;;;;;0.50;0.50;;;10.90;93.70;;;;;;6359300;22;20446;-83
2023/11/04 00:49:38;;;;;;;0.90;0.50;;;10.80;93.50;;;;;;6325143;22;20416;-87
2023/11/04 00:52:06;;;;;;;1.03;0.50;;;10.80;93.60;;;;;;6358641;22;20405;-87
2023/11/04 00:54:36;;;;;;;0.50;0.50;;;10.70;93.70;;;;;;6359838;22;20424;-84
2023/11/04 00:57:05;;;;;;;2.20;0.50;;;10.80;93.60;;;;;;6388317;22;20413;-86
2023/11/04 00:59:32;;;;;;;0.80;0.60;;;10.80;93.70;;;;;;6330839;22;20407;-85
2023/11/04 01:02:08;;;;;;;0.60;0.60;;;10.90;93.60;;;;;;6353485;22;20408;-87
2023/11/04 01:04:40;;;;;;;0.60;0.60;;;10.90;93.70;;;;;;6353808;22;20434;-86
2023/11/04 01:07:11;;;;;;;0.60;0.50;;;10.90;93.60;;;;;;6353821;22;20440;-86
2023/11/04 01:09:41;;;;;;;1.03;0.40;;;10.90;93.60;;;;;;6381187;22;20429;-87
2023/11/04 01:12:11;;;;;;;1.50;0.63;;;10.90;93.70;;;;;;6353162;22;20432;-88
2023/11/04 01:14:41;;;;;;;0.47;0.47;;;10.90;93.80;;;;;;6381738;22;20438;-85
2023/11/04 01:17:10;;;;;;;0.90;0.60;;;10.80;93.80;;;;;;6350182;22;20442;-86
2023/11/04 01:19:39;;;;;;;1.27;0.57;;;10.80;94.30;;;;;;6371972;22;20408;-87
2023/11/04 01:22:09;;;;;;;0.90;0.60;;;10.80;93.90;;;;;;6343564;22;20473;-86
2023/11/04 01:24:44;;;;;;;0.97;0.60;;;10.80;93.90;;;;;;6379619;22;20432;-87
2023/11/04 01:27:24;;;;;;;1.00;0.50;;;10.80;93.80;;;;;;6345437;22;20440;-87
2023/11/04 01:30:00;;;;;;;0.50;0.40;;;10.80;93.50;;;;;;6355695;22;20409;-85
2023/11/04 01:32:32;;;;;;;0.43;0.43;;;10.80;93.30;;;;;;6358653;22;20396;-85
2023/11/04 01:38:47;;;;;;;0.47;0.43;;;10.80;93.20;;;;;;6226663;22;20471;-85
2023/11/04 01:41:14;;;;;;;1.70;0.50;;;10.80;93.20;;;;;;6354982;22;20461;-85
2023/11/04 01:43:42;;;;;;;0.90;0.60;;;10.80;92.90;;;;;;6382117;22;20417;-87
2023/11/04 01:46:18;;;;;;;0.60;0.60;;;10.80;93.10;;;;;;6352820;22;20444;-86
2023/11/04 01:48:56;;;;;;;1.60;0.80;;;10.70;93.00;;;;;;6351803;22;20415;-86
2023/11/04 01:51:37;;;;;;;0.70;0.63;;;10.80;92.90;;;;;;6376490;22;20690;-86
2023/11/04 01:54:15;;;;;;;1.50;0.53;;;10.80;92.90;;;;;;6352955;22;20429;-85
2023/11/04 01:56:45;;;;;;;0.77;0.60;;;10.80;93.00;;;;;;6348578;22;20483;-86
2023/11/04 01:59:18;;;;;;;0.53;0.53;;;10.90;93.00;;;;;;6372361;22;20442;-84
2023/11/04 02:01:48;;;;;;;0.50;0.50;;;10.90;93.10;;;;;;6341728;22;20393;-87
2023/11/04 02:04:31;;;;;;;0.63;0.60;;;10.80;93.10;;;;;;6350627;22;20425;-86
2023/11/04 02:07:07;;;;;;;0.77;0.43;;;10.80;93.20;;;;;;6363679;22;20424;-86
2023/11/04 02:09:36;;;;;;;0.63;0.63;;;10.70;93.50;;;;;;6365160;22;20382;-87
2023/11/04 02:12:06;;;;;;;0.50;0.50;;;10.60;93.70;;;;;;6363821;22;20392;-85
2023/11/04 02:14:39;;;;;;;0.80;0.70;;;10.70;93.60;;;;;;6391421;22;20486;-85
2023/11/04 02:17:25;;;;;;;0.73;0.50;;;10.80;93.60;;;;;;6360979;22;20435;-84
2023/11/04 02:20:02;;;;;;;0.70;0.60;;;10.80;93.50;;;;;;6348113;22;20392;-86
2023/11/04 02:22:38;;;;;;;0.80;0.70;;;10.70;93.60;;;;;;6345795;22;20449;-86
2023/11/04 02:25:08;;;;;;;0.47;0.40;;;10.70;93.90;;;;;;6347046;22;20445;-86
2023/11/04 02:27:55;;;;;;;0.77;0.60;;;10.60;94.20;;;;;;6347672;22;20465;-85
2023/11/04 02:30:42;;;;;;;1.87;0.77;;;10.60;94.20;;;;;;6346738;22;20418;-84
2023/11/04 02:33:28;;;;;;;0.70;0.67;;;10.60;94.50;;;;;;6374650;22;20422;-86
2023/11/04 02:36:11;;;;;;;0.80;0.70;;;10.70;94.40;;;;;;6365930;22;20392;-85
2023/11/04 02:38:44;;;;;;;0.63;0.50;;;10.80;94.50;;;;;;6387646;22;20411;-85
2023/11/04 02:41:44;;;;;;;0.30;0.30;;;10.70;94.70;;;;;;6354703;22;20391;-85
2023/11/04 02:44:17;;;;;;;1.87;1.50;;;10.80;94.50;;;;;;6349876;22;20440;-84
2023/11/04 02:46:54;;;;;;;1.23;0.70;;;10.80;94.50;;;;;;6370809;22;20481;-86
2023/11/04 02:49:50;;;;;;;0.60;0.53;;;10.80;94.50;;;;;;6343368;22;20500;-85
2023/11/04 02:52:34;;;;;;;0.40;0.40;;;10.80;94.50;;;;;;6330980;22;20436;-85
2023/11/04 02:55:13;;;;;;;0.83;0.50;;;10.80;94.70;;;;;;6344099;22;20515;-87
2023/11/04 02:57:43;;;;;;;2.00;0.70;;;10.70;94.90;;;;;;6342963;22;20419;-87
2023/11/04 03:00:18;;;;;;;0.40;0.40;;;10.60;95.10;;;;;;6369799;22;20401;-88
2023/11/04 03:03:09;;;;;;;0.50;0.50;;;10.70;95.20;;;;;;6367501;22;20413;-85
2023/11/04 03:05:38;;;;;;;0.73;0.50;;;;;;;;;;6340359;22;20432;-86
2023/11/04 03:08:11;;;;;;;0.70;0.70;;;;;;;;;;6367026;22;20435;-87
2023/11/04 03:10:46;;;;;;;0.67;0.50;;;;;;;;;;6368398;22;20410;-84
2023/11/04 03:13:27;;;;;;;0.60;0.60;;;;;;;;;;6342694;22;20417;-85
2023/11/04 03:15:58;;;;;;;1.50;0.50;;;;;;;;;;6367744;22;20396;-86
2023/11/04 03:19:12;;;;;;;;;;;;;;;;;;;;;
2023/11/04 03:22:57;;;;;;;;;;;;;;;;;;;;;
2023/11/04 03:25:49;;;;;;;0.50;0.50;;;;;;;;;;6367028;22;20361;-86
2023/11/04 03:28:16;;;;;;;1.53;0.53;;;;;;;;;;6346770;22;20456;-86
2023/11/04 03:30:52;;;;;;;0.77;0.77;;;;;;;;;;6365672;22;20409;-84
2023/11/04 03:33:23;;;;;;;2.00;0.80;;;;;;;;;;6339493;22;21077;-84
2023/11/04 03:35:59;;;;;;;0.73;0.60;;;;;;;;;;6338848;22;20405;-86
2023/11/04 03:38:30;;;;;;;1.93;0.70;;;;;;;;;;6339225;22;20408;-84
2023/11/04 03:41:02;;;;;;;0.60;0.60;;;;;;;;;;6339983;22;20409;-85
2023/11/04 03:43:37;;;;;;;0.87;0.80;;;;;;;;;;6340175;22;20428;-85
2023/11/04 03:46:04;;;;;;;0.73;0.60;;;;;;;;;;6373983;22;20376;-87
2023/11/04 03:48:32;;;;;;;1.67;0.80;;;;;;;;;;6337372;22;20449;-87
2023/11/04 03:51:03;;;;;;;0.63;0.63;;;;;;;;;;6338572;22;20400;-86
2023/11/04 03:53:31;;;;;;;0.67;0.67;;;;;;;;;;6338739;22;20460;-85
2023/11/04 03:56:00;;;;;;;0.70;0.67;;;;;;;;;;6339725;22;20405;-86
2023/11/04 03:58:28;;;;;;;0.60;0.60;;;;;;;;;;6339015;22;21024;-85
2023/11/04 04:01:11;;;;;;;0.40;0.40;;;;;;;;;;6367792;22;20491;-86
2023/11/04 04:03:41;;;;;;;2.00;0.60;;;;;;;;;;6344152;22;20913;-86
2023/11/04 04:06:10;;;;;;;0.60;0.60;;;;;;;;;;6354055;22;20753;-87
2023/11/04 04:08:37;;;;;;;1.13;1.00;;;;;;;;;;6351024;22;20448;-87
2023/11/04 04:11:20;;;;;;;0.70;0.57;;;;;;;;;;6339676;22;20461;-87
2023/11/04 04:13:52;;;;;;;1.10;0.70;;;;;;;;;;6338485;22;20535;-85
2023/11/04 04:16:28;;;;;;;0.70;0.53;;;;;;;;;;6364727;22;20411;-84
2023/11/04 04:19:02;;;;;;;0.50;0.50;;;;;;;;;;6336528;22;20411;-86
2023/11/04 04:21:31;;;;;;;3.03;0.80;;;;;;;;;;6365121;22;20392;-86
2023/11/04 04:24:09;;;;;;;0.70;0.70;;;;;;;;;;6364270;22;20428;-86
2023/11/04 04:26:58;;;;;;;0.50;0.50;;;;;;;;;;6338120;22;20439;-86
2023/11/04 04:29:42;;;;;;;0.50;0.50;;;;;;;;;;6340710;22;20400;-85
2023/11/04 04:32:15;;;;;;;1.43;0.70;;;;;;;;;;6335575;22;20432;-85
2023/11/04 04:34:52;;;;;;;0.40;0.40;;;;;;;;;;6336368;22;20463;-84
2023/11/04 04:37:28;;;;;;;1.20;1.10;;;;;;;;;;6336810;22;20408;-85
2023/11/04 04:40:05;;;;;;;0.80;0.60;;;;;;;;;;6363950;22;20891;-87
2023/11/04 04:42:35;;;;;;;1.13;0.77;;;;;;;;;;6336771;22;20409;-86
2023/11/04 04:45:02;;;;;;;0.50;0.50;;;;;;;;;;6336698;22;20432;-85
2023/11/04 04:47:39;;;;;;;0.77;0.50;;;;;;;;;;6364565;22;21223;-84
2023/11/04 04:50:09;;;;;;;0.60;0.60;;;;;;;;;;6338876;22;20388;-86
2023/11/04 04:52:44;;;;;;;0.73;0.73;;;;;;;;;;6339956;22;20896;-84
2023/11/04 04:55:23;;;;;;;0.57;0.57;;;;;;;;;;6338446;22;20426;-85
2023/11/04 04:57:56;;;;;;;3.07;0.70;;;;;;;;;;6366413;22;20399;-85
2023/11/04 05:00:30;;;;;;;0.60;0.60;;;;;;;;;;6367222;22;20491;-85
2023/11/04 05:02:58;;;;;;;0.70;0.50;;;;;;;;;;6339699;22;20760;-85
2023/11/04 05:05:38;;;;;;;0.93;0.50;;;;;;;;;;6342195;22;20415;-85
2023/11/04 05:08:08;;;;;;;2.20;0.60;;;;;;;;;;6341843;22;20477;-85
2023/11/04 05:10:41;;;;;;;2.47;1.20;;;;;;;;;;6342549;22;20417;-86
2023/11/04 05:13:12;;;;;;;0.57;0.50;;;;;;;;;;6377741;22;20598;-83
2023/11/04 05:15:44;;;;;;;0.67;0.67;;;;;;;;;;6364110;22;20406;-85
2023/11/04 05:18:15;;;;;;;0.87;0.60;;;;;;;;;;6363295;22;20412;-85
2023/11/04 05:20:47;;;;;;;0.90;0.50;;;;;;;;;;6389055;22;20388;-86
2023/11/04 05:23:24;;;;;;;0.47;0.47;;;;;;;;;;6390599;22;20416;-85
2023/11/04 05:26:00;;;;;;;1.00;0.80;;;;;;;;;;6362464;22;20389;-86
2023/11/04 05:28:31;;;;;;;0.60;0.60;;;;;;;;;;6344315;22;20436;-85
2023/11/04 05:31:01;;;;;;;0.77;0.50;;;;;;;;;;6347906;22;20412;-84
2023/11/04 05:33:28;;;;;;;1.00;0.60;;;;;;;;;;6343961;22;20432;-86
2023/11/04 05:36:00;;;;;;;0.87;0.77;;;;;;;;;;6372296;22;20454;-84
2023/11/04 05:38:32;;;;;;;0.93;0.73;;;;;;;;;;6374307;22;20472;-86
2023/11/04 05:41:01;;;;;;;0.80;0.70;;;;;;;;;;6371957;22;20412;-86
2023/11/04 05:43:30;;;;;;;2.30;0.93;;;;;;;;;;6367556;22;20502;-88
2023/11/04 05:45:58;;;;;;;0.90;0.60;;;;;;;;;;6335037;22;20413;-86
2023/11/04 05:48:28;;;;;;;1.00;0.80;;;;;;;;;;6334071;22;20492;-85
2023/11/04 05:51:06;;;;;;;2.30;0.73;;;;;;;;;;6339277;22;20484;-87
2023/11/04 05:53:36;;;;;;;1.10;0.93;;;;;;;;;;6364574;22;20439;-83
2023/11/04 05:56:15;;;;;;;0.97;0.50;;;;;;;;;;6338187;22;20469;-84
2023/11/04 05:58:49;;;;;;;0.57;0.57;;;;;;;;;;6337226;22;20446;-86
2023/11/04 06:01:27;;;;;;;0.80;0.73;;;;;;;;;;6339005;22;20389;-84
2023/11/04 06:03:57;;;;;;;0.63;0.63;;;;;;;;;;6338643;22;20424;-87
2023/11/04 06:06:42;;;;;;;1.17;0.63;;;;;;;;;;6339923;22;20397;-84
2023/11/04 06:09:18;;;;;;;1.50;0.50;;;;;;;;;;6340181;22;20440;-85
2023/11/04 06:11:49;;;;;;;0.60;0.60;;;;;;;;;;6367286;22;20409;-86
2023/11/04 06:14:23;;;;;;;0.87;0.50;;;;;;;;;;6337268;22;20504;-86
2023/11/04 06:17:06;;;;;;;1.73;1.03;;;;;;;;;;6366098;22;20417;-85
2023/11/04 06:19:39;;;;;;;1.67;0.90;;;;;;;;;;6338420;22;20400;-84
2023/11/04 06:22:19;;;;;;;;;;;;;;;;;;;;;
2023/11/04 06:24:55;;;;;;;1.03;0.63;;;;;;;;;;6365663;22;20436;-85
2023/11/04 06:27:39;;;;;;;0.80;0.70;;;;;;;;;;6366072;22;20462;-86
2023/11/04 06:30:13;;;;;;;0.90;0.60;;;;;;;;;;6337274;22;20445;-86
2023/11/04 06:32:57;;;;;;;0.93;0.67;;;;;;;;;;6367976;22;20396;-84
2023/11/04 06:35:31;;;;;;;0.80;0.50;;;;;;;;;;6341742;22;20408;-86
2023/11/04 06:38:05;;;;;;;3.30;0.70;;;;;;;;;;6338208;22;20495;-85
2023/11/04 06:40:45;;;;;;;1.77;0.90;;;;;;;;;;6366005;22;20415;-87
2023/11/04 06:43:15;;;;;;;0.60;0.60;;;;;;;;;;6338807;22;20557;-88
2023/11/04 06:45:50;;;;;;;0.60;0.60;;;;;;;;;;6366247;22;20496;-86
2023/11/04 06:48:28;;;;;;;0.93;0.70;;;;;;;;;;6339588;22;20445;-87
2023/11/04 06:50:57;;;;;;;0.50;0.50;;;;;;;;;;6367429;22;20400;-85
2023/11/04 06:53:36;;;;;;;0.67;0.67;;;;;;;;;;6341385;22;20456;-84
2023/11/04 06:56:27;;;;;;;0.70;0.60;;;;;;;;;;6365349;22;20975;-87
2023/11/04 06:58:56;;;;;;;1.07;0.90;;;;;;;;;;6364003;22;20465;-87
2023/11/04 07:01:30;;;;;;;1.13;0.93;;;;;;;;;;6366280;22;20400;-86
2023/11/04 07:04:01;;;;;;;0.50;0.40;;;;;;;;;;6343836;22;20436;-85
2023/11/04 07:06:45;;;;;;;0.87;0.60;;;;;;;;;;6372020;22;20453;-85
2023/11/04 07:09:18;;;;;;;1.37;0.60;;;;;;;;;;6346093;22;20451;-86
2023/11/04 07:11:54;;;;;;;1.30;0.93;;;;;;;;;;6350853;22;20448;-87
2023/11/04 07:14:31;;;;;;;0.60;0.60;;;;;;;;;;6350766;22;20433;-86
2023/11/04 07:16:59;;;;;;;3.53;0.70;;;;;;;;;;6382817;22;20395;-86
2023/11/04 07:19:34;;;;;;;0.70;0.70;;;;;;;;;;6356500;22;20408;-86
2023/11/04 07:22:02;;;;;;;2.20;1.00;;;;;;;;;;6341633;22;20510;-87
2023/11/04 07:24:37;;;;;;;0.70;0.70;;;;;;;;;;6341721;22;20948;-85
2023/11/04 07:27:20;;;;;;;1.30;0.67;;;;;;;;;;6352820;22;20392;-87
2023/11/04 07:30:19;;;;;;;1.20;0.73;;;;;;;;;;6360596;22;20409;-85
2023/11/04 07:32:54;;;;;;;0.90;0.60;;;;;;;;;;6387693;22;20396;-85
2023/11/04 07:35:26;;;;;;;0.70;0.50;;;;;;;;;;6362012;22;20412;-86
2023/11/04 07:38:03;;;;;;;1.33;0.70;;;;;;;;;;6361887;22;20396;-85
2023/11/04 07:40:42;;;;;;;7.00;1.50;;;;;;;;;;6388177;22;20396;-86
2023/11/04 07:43:26;;;;;;;0.97;0.87;;;;;;;;;;6361083;22;20396;-88
2023/11/04 07:46:02;;;;;;;1.20;0.80;;;;;;;;;;6361950;22;20403;-86
2023/11/04 07:48:33;;;;;;;0.70;0.70;;;;;;;;;;6363341;22;20444;-87
2023/11/04 07:51:14;;;;;;;0.80;0.80;;;;;;;;;;6389848;22;20435;-85
2023/11/04 07:53:59;;;;;;;0.70;0.70;;;;;;;;;;6364897;22;20439;-86
2023/11/04 07:56:39;;;;;;;2.70;1.10;;;;;;;;;;6346239;22;20400;-85
2023/11/04 07:59:12;;;;;;;2.87;0.70;;;;;;;;;;6337918;22;20464;-86
2023/11/04 08:01:54;;;;;;;;;;;;;;;;;;;;;
2023/11/04 08:04:36;;;;;;;;;;;;;;;;;;;;;
2023/11/04 08:07:10;;;;;;;0.80;0.80;;;;;;;;;;6370594;22;20400;-86
2023/11/04 08:10:03;;;;;;;0.70;0.70;;;;;;;;;;6371344;22;20419;-86
2023/11/04 08:12:44;;;;;;;0.90;0.90;;;;;;;;;;6360017;22;20484;-85
2023/11/04 08:15:20;;;;;;;2.03;1.10;;;;;;;;;;6362218;22;20420;-84
2023/11/04 08:18:13;;;;;;;1.10;1.10;;;;;;;;;;6349833;22;20815;-84
2023/11/04 08:20:48;;;;;;;0.80;0.80;;;;;;;;;;6366864;22;20401;-86
2023/11/04 08:23:20;;;;;;;2.73;1.30;;;;;;;;;;6365354;22;20419;-87
2023/11/04 08:25:51;;;;;;;1.37;0.90;;;;;;;;;;6364641;22;20480;-87
2023/11/04 08:28:28;;;;;;;1.47;1.10;;;;;;;;;;6338452;22;20520;-85
2023/11/04 08:31:15;;;;;;;1.30;1.10;;;;;;;;;;6339488;22;20377;-87
2023/11/04 08:33:48;;;;;;;1.23;1.13;;;;;;;;;;6366931;22;20470;-86
2023/11/04 08:36:29;;;;;;;1.57;1.33;;;;;;;;;;6343741;22;20424;-87
2023/11/04 08:38:59;;;;;;;1.50;1.40;;;;;;;;;;6368064;22;20430;-85
2023/11/04 08:41:35;;;;;;;1.20;0.90;;;;;;;;;;6340396;22;20404;-83
2023/11/04 08:44:14;;;;;;;0.90;0.90;;;;;;;;;;6369251;22;20458;-85
2023/11/04 08:46:58;;;;;;;0.93;0.80;;;;;;;;;;6342401;22;20408;-86
2023/11/04 08:49:43;;;;;;;1.03;0.90;;;;;;;;;;6342532;22;20501;-85
2023/11/04 08:52:22;;;;;;;;;;;;;;;;;;;;;
2023/11/04 08:55:25;;;;;;;1.07;1.00;;;;;;;;;;6367061;22;20460;-83
2023/11/04 08:58:00;;;;;;;1.20;1.10;;;;;;;;;;6360399;22;20384;-87
2023/11/04 09:00:40;;;;;;;1.63;1.20;;;;;;;;;;6363159;22;20384;-85
2023/11/04 09:03:21;;;;;;;1.60;1.50;;;;;;;;;;6364036;22;20404;-87
2023/11/04 09:06:06;;;;;;;1.23;0.90;;;;;;;;;;6364679;22;20416;-86
2023/11/04 09:08:36;;;;;;;1.50;1.40;;;;;;;;;;6364289;22;20455;-88
2023/11/04 09:11:22;;;;;;;1.23;1.20;;;;;;;;;;6367153;22;20412;-85
2023/11/04 09:14:04;;;;;;;1.33;1.23;;;;;;;;;;6381838;22;20443;-86
2023/11/04 09:16:42;;;;;;;1.13;1.03;;;;;;;;;;6349564;22;20446;-85
2023/11/04 09:19:24;;;;;;;1.40;1.30;;;;;;;;;;6349662;22;20400;-88
2023/11/04 09:22:05;;;;;;;1.40;1.30;;;;;;;;;;6349463;22;20484;-87
2023/11/04 09:24:36;;;;;;;1.50;1.07;;;;;;;;;;6373793;22;20420;-85
2023/11/04 09:27:26;;;;;;;1.30;1.20;;;;;;;;;;6338730;22;20384;-87
2023/11/04 09:30:04;;;;;;;1.73;1.60;;;;;;;;;;6362994;22;20408;-84
2023/11/04 09:33:04;;;;;;;1.40;1.20;;;;;;;;;;6350838;22;20384;-84
2023/11/04 09:36:06;;;;;;;1.03;1.03;;;;;;;;;;6391796;22;20381;-80
2023/11/04 09:38:43;;;;;;;2.40;1.10;;;;;;;;;;6381258;22;20507;-85
2023/11/04 09:52:56;;;;;;;1.80;1.20;;;;;;;;;;5032317;28;20594;-84
2023/11/04 09:56:10;;;;;;;2.17;1.30;;;;;;;;;;4999929;28;20428;-84
2023/11/04 09:59:01;;;;;;;;;;;;;;;;;;;;;
2023/11/04 10:05:25;;;;;;;1.43;1.03;;;;;;;;;;4994869;28;20442;-84
2023/11/04 10:19:37;;;;;;;2.00;1.00;;;;;;;;;;5791566;22;8710176;-87
2023/11/04 10:22:31;;;;;;;2.23;0.80;;;;;;;;;;6144193;23;20181;-85
2023/11/04 10:25:34;;;;;;;;;;;;;;;;;;;;;
2023/11/04 10:34:48;;;;;;;1.10;1.00;;;;;;;;;;6163030;23;20437;-86
2023/11/04 10:37:41;;;;;;;1.50;1.17;;;;;;;;;;6148026;23;20388;-80
2023/11/04 10:41:06;;;;;;;2.67;1.70;;;;;;;;;;6159444;23;20462;-85
2023/11/04 10:44:11;;;;;;;3.33;1.23;;;;;;;;;;6139251;23;20431;-86
2023/11/04 10:47:12;;;;;;;1.40;1.30;;;;;;;;;;6166787;23;20482;-84
2023/11/04 10:53:48;;;;;;;2.07;1.30;;;;;;;;;;6144685;23;20446;-83
2023/11/04 10:56:59;;;;;;;2.00;0.83;;;;;;;;;;6157249;23;20379;-85
2023/11/04 11:00:13;;;;;;;2.43;1.60;;;;;;;;;;6145389;23;20387;-84
2023/11/04 11:03:06;;;;;;;2.23;1.00;;;;;;;;;;6164349;23;20442;-83
2023/11/04 11:06:17;;;;;;;3.13;1.10;;;;;;;;;;6062855;23;20520;-86
2023/11/04 11:09:38;;;;;;;2.73;1.30;;;;;;;;;;6063712;23;20410;-85
2023/11/04 11:13:11;;;;;;;1.37;1.10;;;;;;;;;;5971472;24;20465;-85
2023/11/04 11:16:04;;;;;;;1.17;1.00;;;;;;;;;;6052048;23;20401;-84
2023/11/04 11:19:08;;;;;;;2.90;1.33;;;;;;;;;;6051345;23;20912;-86
2023/11/04 11:23:04;;;;;;;;;;;;;;;;;;;;;
2023/11/04 12:00:09;;;;;;;1.63;0.90;;;;;;;;;;6012583;23;20495;-85
2023/11/04 12:02:59;;;;;;;1.40;1.30;;;;;;;;;;5936739;23;20399;-85
2023/11/04 12:13:01;;;;;;;1.87;1.60;;;;;;;;;;5948928;23;20592;-87
2023/11/04 12:16:15;;;;;;;4.53;1.43;;;;;;;;;;6115670;23;20461;-87
2023/11/04 12:22:22;;;;;;;3.40;1.37;;;;;;;;;;6062546;23;20408;-87
2023/11/04 12:25:14;;;;;;;3.03;1.30;;;;;;;;;;6109301;23;20451;-86
2023/11/04 12:28:13;;;;;;;1.27;1.17;;;;;;;;;;6105760;23;20464;-85
2023/11/04 12:31:25;;;;;;;1.60;1.30;;;;;;;;;;6096495;23;20456;-85
2023/11/04 12:38:02;;;;;;;1.00;0.90;;;;;;;;;;6095323;23;20451;-84
2023/11/04 12:40:59;;;;;;;1.07;0.97;;;;;;;;;;6079066;23;20412;-86
2023/11/04 12:44:06;;;;;;;2.10;1.40;;;;;;;;;;5959611;24;20420;-86
2023/11/04 12:47:04;;;;;;;1.47;0.87;;;;;;;;;;5981275;24;20812;-85
2023/11/04 12:49:45;;;;;;;1.20;1.10;;;;;;;;;;5945281;24;20627;-85
2023/11/04 12:52:35;;;;;;;;;;;;;;;;;;;;;
2023/11/04 12:55:42;;;;;;;3.03;1.03;;;;;;;;;;5988796;23;20423;-84
2023/11/04 12:58:53;;;;;;;4.57;1.23;;;;;;;;;;5988588;24;20397;-84
2023/11/04 13:01:58;;;;;;;1.37;0.60;;;;;;;;;;5962943;24;20403;-84
2023/11/04 13:04:56;;;;;;;1.10;0.50;;;;;;;;;;5966740;24;20458;-84
2023/11/04 13:08:16;;;;;;;3.60;0.77;;;;;;;;;;5910506;24;21437;-83
2023/11/04 13:11:31;;;;;;;0.70;0.70;;;;;;;;;;5911458;24;20435;-86
2023/11/04 13:14:53;;;;;;;0.60;0.53;;;;;;;;;;5922553;24;20430;-84
2023/11/04 13:18:05;;;;;;;;;;;;;;;;;;;;;
2023/11/04 13:21:04;;;;;;;1.70;0.73;;;;;;;;;;5987682;23;20453;-84
2023/11/04 13:24:11;;;;;;;0.70;0.67;;;;;;;;;;6070386;23;20437;-85
2023/11/04 13:30:24;;;;;;;0.77;0.70;;;;;;;;;;6073261;23;20410;-86
2023/11/04 13:33:17;;;;;;;2.27;0.70;;;;;;;;;;6098828;23;20464;-86
2023/11/04 13:37:01;;;;;;;2.30;0.70;;;;;;;;;;6110778;23;20392;-86
2023/11/04 13:39:42;;;;;;;0.67;0.67;;;;;;;;;;6103357;23;20420;-83
2023/11/04 13:42:41;;;;;;;0.40;0.40;;;;;;;;;;6101243;23;20499;-85
2023/11/04 13:46:16;;;;;;;0.97;0.60;;;;;;;;;;6090999;23;20424;-86
2023/11/04 13:52:17;;;;;;;0.50;0.50;;;;;;;;;;6054037;23;20405;-85
2023/11/04 13:55:17;;;;;;;;;;;;;;;;;;;;;
2023/11/04 13:58:07;;;;;;;0.60;0.50;;;;;;;;;;6022223;23;20403;-86
2023/11/04 14:00:44;;;;;;;0.60;0.50;;;;;;;;;;6003719;23;20507;-82
2023/11/04 14:03:53;;;;;;;0.60;0.50;;;;;;;;;;6023570;23;20429;-87
2023/11/04 14:10:09;;;;;;;0.50;0.50;;;10.80;95.20;;;;;;6064732;23;20464;-82
2023/11/04 14:16:08;;;;;;;0.40;0.40;;;;;;;;;;6018625;23;20840;-83
2023/11/04 14:23:04;;;;;;;0.50;0.50;;;11.70;99.90;;;;;;5997361;23;20411;-83
2023/11/04 14:25:54;;;;;;;0.70;0.70;;;11.70;99.90;;;;;;5984077;23;20455;-85
2023/11/04 14:28:55;;;;;;;1.80;0.53;;;11.80;99.90;;;;;;6091519;23;20528;-85
2023/11/04 14:31:30;;;;;;;0.87;0.53;;;;;;;;;;6092730;23;20792;-86
2023/11/04 14:34:40;;;;;;;0.70;0.50;;;;;;;;;;6104191;23;20467;-84
2023/11/04 14:37:51;;;;;;;0.40;0.40;;;;;;;;;;6095980;23;20412;-88
2023/11/04 14:43:41;;;;;;;0.70;0.47;;;;;;;;;;6059912;23;20460;-84
2023/11/04 14:46:14;;;;;;;0.40;0.40;;;;;;;;;;6097426;23;20515;-85
2023/11/04 14:48:59;;;;;;;1.87;0.43;;;;;;;;;;6091978;23;21050;-83
2023/11/04 14:52:10;;;;;;;0.50;0.50;;;;;;;;;;6023174;23;20390;-84
2023/11/04 14:58:51;;;;;;;0.50;0.40;;;;;;;;;;6008280;23;20440;-85
2023/11/04 15:02:22;;;;;;;;;;;;;;;;;;;;;
2023/11/04 15:07:53;;;;;;;0.77;0.50;;;;;;;;;;6158186;23;20446;-85
2023/11/04 15:11:03;;;;;;;;;;;;;;;;;;;;;
2023/11/04 15:18:26;;;;;;;0.70;0.40;;;;;;;;;;5876891;24;20430;-86
2023/11/04 15:21:16;;;;;;;0.70;0.50;;;;;;;;;;5960478;24;20424;-85
2023/11/04 15:24:41;;;;;;;0.93;0.57;;;;;;;;;;5829104;24;20480;-85
2023/11/04 15:27:25;;;;;;;0.90;0.70;;;;;;;;;;5803267;24;20583;-84
2023/11/04 15:30:48;;;;;;;0.80;0.50;;;;;;;;;;5880817;24;20475;-86
2023/11/04 15:37:22;;;;;;;0.50;0.50;;;;;;;;;;5954284;24;20785;-88
2023/11/04 15:40:47;;;;;;;1.70;0.40;;;;;;;;;;5983582;24;20943;-86
2023/11/04 15:55:14;;;;;;;;;;;;;;;;;;;;;
2023/11/04 15:57:38;;;;;;;0.87;0.70;;;;;;;;;;6102143;23;20382;-84
2023/11/04 16:00:39;;;;;;;1.23;0.50;;;;;;;;;;6085319;23;20494;-84
2023/11/04 16:03:51;;;;;;;0.80;0.70;;;;;;;;;;6092363;23;20451;-85
2023/11/04 16:10:40;;;;;;;1.03;0.70;;;;;;;;;;6042157;23;20426;-85
2023/11/04 16:13:45;;;;;;;0.57;0.57;;;;;;;;;;6074579;23;21369;-83
2023/11/04 16:16:51;;;;;;;0.80;0.60;;;;;;;;;;6059538;23;20810;-83
2023/11/04 16:19:36;;;;;;;1.83;1.33;;;;;;;;;;6050964;23;20461;-88
2023/11/04 16:22:44;;;;;;;0.70;0.70;;;;;;;;;;6051439;23;20450;-86
2023/11/04 16:25:51;;;;;;;;;;;;;;;;;;;;;
2023/11/04 16:29:25;;;;;;;0.63;0.40;;;;;;;;;;6032520;23;20478;-87
2023/11/04 16:32:13;;;;;;;0.90;0.70;;;;;;;;;;6052440;23;20428;-85
2023/11/04 16:35:10;;;;;;;3.40;0.83;;;;;;;;;;6037799;23;20446;-85
2023/11/04 16:38:08;;;;;;;2.10;0.50;;;;;;;;;;6037416;23;20437;-85
2023/11/04 16:40:44;;;;;;;0.47;0.47;;;;;;;;;;6052225;23;20413;-84
2023/11/04 16:43:38;;;;;;;0.83;0.60;;;;;;;;;;6048064;23;20441;-86
2023/11/04 16:46:09;;;;;;;1.10;0.63;;;;;;;;;;6061920;23;20500;-84
2023/11/04 16:48:45;;;;;;;1.93;0.80;;;;;;;;;;6145707;23;20458;-86
2023/11/04 16:51:25;;;;;;;1.00;0.70;;;;;;;;;;6174965;23;20948;-86
2023/11/04 16:54:17;;;;;;;0.60;0.60;;;;;;;;;;6095466;23;20428;-86
2023/11/04 16:57:01;;;;;;;0.40;0.40;;;;;;;;;;6141390;23;20435;-85
2023/11/04 16:59:58;;;;;;;0.47;0.47;;;;;;;;;;6161992;23;20800;-84
2023/11/04 17:03:42;;;;;;;1.00;0.70;;;;;;;;;;6156582;23;20438;-86
2023/11/04 17:06:32;;;;;;;1.13;0.70;;;;;;;;;;6135292;23;20427;-86
2023/11/04 17:09:13;;;;;;;0.97;0.87;;;;;;;;;;6161862;23;20442;-84
2023/11/04 17:12:13;;;;;;;1.23;0.67;;;;;;;;;;6110335;23;20409;-87
2023/11/04 17:15:15;;;;;;;0.73;0.63;;;;;;;;;;6130206;23;20431;-86
2023/11/04 17:18:03;;;;;;;0.60;0.60;;;;;;;;;;6133695;23;21165;-86
2023/11/04 17:20:47;;;;;;;1.47;0.60;;;;;;;;;;6135763;23;20419;-85
2023/11/04 17:23:49;;;;;;;0.60;0.60;;;;;;;;;;6100226;23;20415;-87
2023/11/04 17:26:28;;;;;;;0.60;0.60;;;;;;;;;;6128841;23;20434;-86
2023/11/04 17:29:01;;;;;;;1.00;0.50;;;;;;;;;;6129889;23;20481;-86
2023/11/04 17:31:29;;;;;;;0.60;0.60;;;;;;;;;;6153380;23;20411;-86
2023/11/04 17:34:07;;;;;;;1.00;0.80;;;;;;;;;;6132506;23;20462;-87
2023/11/04 17:36:37;;;;;;;0.90;0.70;;;;;;;;;;6159540;23;20478;-88
2023/11/04 17:39:16;;;;;;;0.97;0.70;;;;;;;;;;6164526;23;20406;-86
2023/11/04 17:41:47;;;;;;;1.13;0.77;;;;;;;;;;6136483;23;20468;-86
2023/11/04 17:44:16;;;;;;;2.20;1.03;;;;;;;;;;6135727;23;20474;-87
2023/11/04 17:46:55;;;;;;;1.97;0.90;;;;;;;;;;6131581;23;20415;-86
2023/11/04 17:49:40;;;;;;;1.17;1.10;;;;;;;;;;6130564;23;20512;-88
2023/11/04 17:52:22;;;;;;;1.43;1.10;;;;;;;;;;6129909;23;20407;-87
2023/11/04 17:54:53;;;;;;;1.60;0.80;;;;;;;;;;6128963;23;20435;-86
2023/11/04 17:57:42;;;;;;;;;;;;;;;;;;;;;
2023/11/04 18:00:17;;;;;;;2.03;1.00;;;;;;;;;;6152888;23;20491;-84
2023/11/04 18:02:49;;;;;;;1.90;0.97;;;;;;;;;;6128074;23;20406;-84
2023/11/04 18:12:44;;;;;;;1.50;1.40;;;;;;;;;;5979638;24;20634;-88
2023/11/04 18:15:34;;;;;;;1.73;1.63;;;;;;;;;;6033482;23;20450;-86
2023/11/04 18:24:27;;;;;;;2.20;1.33;;;;;;;;;;6123800;23;20491;-85
2023/11/04 18:27:09;;;;;;;1.23;1.13;;;;;;;;;;6121883;23;20418;-86
2023/11/04 18:29:52;;;;;;;1.27;1.17;;;;;;;;;;6123770;23;20442;-87
2023/11/04 18:35:21;;;;;;;1.13;1.03;;;;;;;;;;6136926;23;20936;-84
2023/11/04 18:38:00;;;;;;;1.70;1.60;;;;;;;;;;6127948;23;20414;-84
2023/11/04 18:40:43;;;;;;;1.90;1.10;;;;;;;;;;6133218;23;20708;-85
2023/11/04 18:43:27;;;;;;;1.90;1.40;;;;;;;;;;6130669;23;20414;-89
2023/11/04 18:45:59;;;;;;;2.00;1.10;;;;;;;;;;6133405;23;20843;-86
2023/11/04 18:48:29;;;;;;;1.07;1.00;;;;;;;;;;6132231;23;20446;-85